Time;durP1;ratioP1;P1;durP2;ratioP2;P2;SDS_P1;SDS_P2;PMS_P1;PMS_P2;Temp;Humidity;BMP_temperature;BMP_pressure;BME280_temperature;BME280_humidity;BME280_pressure;Samples;Min_cycle;Max_cycle;Signal;HPM_P1;HPM_P2
2023/05/13 00:01:08;;;;;;;12.90;10.02;;;;;;;12.64;100.00;102312.50;5134820;27;20031;-78
2023/05/13 00:03:34;;;;;;;14.75;10.50;;;;;;;12.65;100.00;102312.38;5133621;27;20047;-78
2023/05/13 00:06:00;;;;;;;10.50;9.40;;;;;;;12.65;100.00;102317.72;5134621;27;20462;-78
2023/05/13 00:08:25;;;;;;;11.77;9.05;;;;;;;12.64;100.00;102313.31;5134755;27;20388;-78
2023/05/13 00:10:51;;;;;;;12.45;8.85;;;;;;;12.64;100.00;102310.66;5134645;27;20035;-78
2023/05/13 00:13:16;;;;;;;13.65;8.40;;;;;;;12.64;100.00;102313.31;5134706;27;20035;-78
2023/05/13 00:15:41;;;;;;;8.90;7.93;;;;;;;12.68;100.00;102320.16;5134164;27;20499;-78
2023/05/13 00:18:07;;;;;;;11.70;8.13;;;;;;;12.72;100.00;102314.56;5134981;27;20038;-78
2023/05/13 00:20:32;;;;;;;12.55;8.27;;;;;;;12.77;100.00;102310.59;5133350;27;20031;-78
2023/05/13 00:22:57;;;;;;;14.82;8.07;;;;;;;12.83;100.00;102309.28;5134392;27;20112;-79
2023/05/13 00:25:23;;;;;;;10.07;8.45;;;;;;;12.88;100.00;102312.41;5134942;27;20070;-79
2023/05/13 00:27:48;;;;;;;13.85;9.43;;;;;;;12.89;100.00;102306.13;5134731;27;20118;-78
2023/05/13 00:30:14;;;;;;;16.85;8.80;;;;;;;12.87;100.00;102308.06;5134725;27;20501;-78
2023/05/13 00:32:39;;;;;;;12.05;8.80;;;;;;;12.83;100.00;102306.59;5134865;27;20367;-78
2023/05/13 00:35:05;;;;;;;12.25;8.52;;;;;;;12.77;100.00;102307.06;5134396;27;20070;-78
2023/05/13 00:37:30;;;;;;;13.27;7.85;;;;;;;12.74;100.00;102299.28;5134598;27;20027;-78
2023/05/13 00:39:55;;;;;;;15.98;9.27;;;;;;;12.67;100.00;102307.78;5134510;27;20494;-79
2023/05/13 00:42:21;;;;;;;13.43;8.27;;;;;;;12.62;100.00;102306.44;5132988;27;20360;-78
2023/05/13 00:44:46;;;;;;;11.30;8.07;;;;;;;12.55;100.00;102306.03;5133682;27;20028;-78
2023/05/13 00:47:12;;;;;;;11.73;8.52;;;;;;;12.48;100.00;102302.97;5134682;27;20118;-78
2023/05/13 00:49:37;;;;;;;10.50;8.27;;;;;;;12.44;100.00;102311.34;5134522;27;20424;-78
2023/05/13 00:52:03;;;;;;;12.45;8.57;;;;;;;12.38;100.00;102307.31;5134079;27;20062;-77
2023/05/13 00:54:29;;;;;;;14.55;8.52;;;;;;;12.34;100.00;102313.84;5134643;27;20110;-79
2023/05/13 00:56:55;;;;;;;12.30;7.95;;;;;;;12.30;100.00;102312.34;5134582;27;20027;-79
2023/05/13 00:59:26;;;;;;;10.38;8.27;;;;;;;12.27;100.00;102309.91;5134625;27;20039;-78
2023/05/13 01:02:05;;;;;;;17.00;9.27;;;;;;;12.22;100.00;102314.75;5134654;27;20084;-79
2023/05/13 01:04:43;;;;;;;11.90;7.78;;;;;;;12.15;100.00;102307.22;5135732;28;20095;-78
2023/05/13 01:07:26;;;;;;;9.85;7.60;;;;;;;12.11;100.00;102311.06;5134194;27;20042;-78
2023/05/13 01:09:58;;;;;;;11.35;7.05;;;;;;;12.09;100.00;102301.47;5134474;28;20038;-77
2023/05/13 01:12:33;;;;;;;10.77;7.55;;;;;;;12.06;100.00;102310.56;5134010;28;20484;-77
2023/05/13 01:15:07;;;;;;;11.73;7.57;;;;;;;11.98;100.00;102304.94;5134299;27;20063;-77
2023/05/13 01:17:59;;;;;;;10.93;7.60;;;;;;;11.87;100.00;102304.81;5133993;27;20038;-77
2023/05/13 01:20:26;;;;;;;12.60;6.80;;;;;;;11.74;100.00;102304.88;5132913;28;20034;-78
2023/05/13 01:22:51;;;;;;;9.15;7.45;;;;;;;11.61;100.00;102299.56;5134039;27;20035;-78
2023/05/13 01:25:17;;;;;;;16.08;7.05;;;;;;;11.49;100.00;102303.09;5134329;27;20149;-78
2023/05/13 01:27:42;;;;;;;8.57;6.55;;;;;;;11.36;100.00;102303.13;5134407;28;20490;-77
2023/05/13 01:30:09;;;;;;;13.52;8.32;;;;;;;11.21;100.00;102303.25;5134094;27;20035;-78
2023/05/13 01:32:36;;;;;;;11.63;7.20;;;;;;;11.08;100.00;102303.25;5134561;27;20024;-79
2023/05/13 01:35:02;;;;;;;11.95;7.45;;;;;;;10.97;100.00;102296.97;5133747;27;20035;-78
2023/05/13 01:37:29;;;;;;;10.63;6.82;;;;;;;10.87;100.00;102302.09;5133713;27;20023;-77
2023/05/13 01:39:54;;;;;;;10.10;6.70;;;;;;;10.78;100.00;102306.22;5133694;27;20031;-77
2023/05/13 01:42:20;;;;;;;7.65;6.63;;;;;;;10.72;100.00;102303.97;5133678;27;20030;-77
2023/05/13 01:44:45;;;;;;;8.68;7.40;;;;;;;10.64;100.00;102307.13;5133978;28;20156;-78
2023/05/13 01:47:11;;;;;;;9.88;6.88;;;;;;;10.55;100.00;102308.63;5133510;27;20047;-78
2023/05/13 01:49:36;;;;;;;14.18;7.50;;;;;;;10.46;100.00;102308.38;5133579;27;20033;-78
2023/05/13 01:52:03;;;;;;;10.57;7.65;;;;;;;10.43;100.00;102308.59;5132365;28;20059;-77
2023/05/13 01:54:28;;;;;;;7.60;6.80;;;;;;;10.38;100.00;102312.41;5114937;28;20034;-77
2023/05/13 01:56:54;;;;;;;11.00;7.28;;;;;;;10.29;100.00;102306.81;5135173;27;20110;-78
2023/05/13 01:59:20;;;;;;;8.27;7.38;;;;;;;10.22;100.00;102303.69;5136876;27;20520;-78
2023/05/13 02:01:45;;;;;;;15.60;8.20;;;;;;;10.15;100.00;102299.72;5137263;27;20473;-78
2023/05/13 02:04:11;;;;;;;11.27;7.45;;;;;;;10.12;100.00;102297.28;5136827;27;20043;-78
2023/05/13 02:06:36;;;;;;;8.18;6.97;;;;;;;10.13;100.00;102306.97;5137107;27;20486;-78
2023/05/13 02:09:01;;;;;;;9.45;6.53;;;;;;;10.18;100.00;102313.69;5137032;27;20373;-79
2023/05/13 02:11:27;;;;;;;12.35;7.13;;;;;;;10.24;100.00;102315.13;5136751;27;20059;-79
2023/05/13 02:13:52;;;;;;;11.73;7.55;;;;;;;10.29;100.00;102317.47;5136860;27;20031;-79
2023/05/13 02:16:19;;;;;;;9.73;7.25;;;;;;;10.30;100.00;102314.69;5136773;27;20528;-79
2023/05/13 02:18:44;;;;;;;12.50;7.28;;;;;;;10.28;100.00;102321.91;5136630;27;20555;-79
2023/05/13 02:21:09;;;;;;;8.75;6.97;;;;;;;10.24;100.00;102315.97;5136743;27;20061;-78
2023/05/13 02:23:35;;;;;;;9.88;7.50;;;;;;;10.18;100.00;102321.69;5136877;27;20386;-81
2023/05/13 02:26:00;;;;;;;10.13;7.60;;;;;;;10.11;100.00;102311.56;5136432;27;20364;-78
2023/05/13 02:28:26;;;;;;;10.00;8.25;;;;;;;10.04;100.00;102313.72;5137137;27;20169;-79
2023/05/13 02:30:51;;;;;;;13.55;8.15;;;;;;;9.99;100.00;102314.03;5137210;27;20042;-79
2023/05/13 02:33:17;;;;;;;12.02;8.68;;;;;;;9.94;100.00;102315.28;5136559;27;20041;-79
2023/05/13 02:35:42;;;;;;;9.45;8.32;;;;;;;9.93;100.00;102318.88;5136531;27;20194;-79
2023/05/13 02:38:11;;;;;;;10.68;8.48;;;;;;;9.91;100.00;102328.78;5136300;27;20043;-78
2023/05/13 02:40:36;;;;;;;13.10;8.57;;;;;;;9.87;100.00;102326.31;5136422;27;20035;-79
2023/05/13 02:43:02;;;;;;;12.30;8.77;;;;;;;9.80;100.00;102324.16;5136355;27;20039;-79
2023/05/13 02:45:27;;;;;;;16.08;8.48;;;;;;;9.71;100.00;102320.25;5136290;27;20039;-79
2023/05/13 02:47:52;;;;;;;14.98;9.13;;;;;;;9.62;100.00;102323.50;5135722;27;20130;-78
2023/05/13 02:50:18;;;;;;;10.68;7.60;;;;;;;9.54;100.00;102321.34;5136257;27;20114;-78
2023/05/13 02:52:43;;;;;;;14.32;8.85;;;;;;;9.44;100.00;102323.69;5136517;27;20451;-78
2023/05/13 02:55:09;;;;;;;11.18;9.15;;;;;;;9.38;100.00;102329.41;5135870;27;20502;-78
2023/05/13 02:57:35;;;;;;;13.38;8.95;;;;;;;9.29;100.00;102333.47;5136063;27;20071;-78
2023/05/13 03:00:02;;;;;;;10.65;8.32;;;;;;;9.21;100.00;102325.13;5136802;27;20051;-78
2023/05/13 03:02:28;;;;;;;15.65;9.38;;;;;;;9.16;100.00;102325.38;5135940;27;20467;-78
2023/05/13 03:04:55;;;;;;;20.70;10.60;;;;;;;9.15;100.00;102331.66;5136484;27;20079;-78
2023/05/13 03:07:21;;;;;;;21.27;11.48;;;;;;;9.15;100.00;102334.31;5135450;27;20503;-78
2023/05/13 03:09:46;;;;;;;29.60;12.27;;;;;;;9.14;100.00;102324.66;5136077;27;20501;-78
2023/05/13 03:12:12;;;;;;;23.42;13.13;;;;;;;9.13;100.00;102328.22;5135393;27;20031;-79
2023/05/13 03:14:38;;;;;;;27.02;14.23;;;;;;;9.09;100.00;102328.53;5135664;27;20038;-78
2023/05/13 03:17:04;;;;;;;32.78;14.88;;;;;;;9.07;100.00;102322.47;5135531;27;20027;-78
2023/05/13 03:19:30;;;;;;;22.75;14.52;;;;;;;9.01;100.00;102323.69;5135665;27;20049;-78
2023/05/13 03:21:55;;;;;;;29.30;15.75;;;;;;;8.98;100.00;102319.41;5135520;27;20114;-78
2023/05/13 03:24:21;;;;;;;37.10;16.77;;;;;;;8.99;100.00;102322.94;5135366;27;20031;-79
2023/05/13 03:26:46;;;;;;;32.80;16.77;;;;;;;8.96;100.00;102323.97;5135937;27;20114;-78
2023/05/13 03:29:11;;;;;;;30.77;17.63;;;;;;;8.99;100.00;102322.94;5135709;27;20019;-78
2023/05/13 03:31:37;;;;;;;24.35;16.52;;;;;;;8.96;100.00;102321.31;5135273;27;20035;-79
2023/05/13 03:34:02;;;;;;;28.80;18.33;;;;;;;8.94;100.00;102327.66;5135288;27;20407;-78
2023/05/13 03:36:27;;;;;;;36.17;18.42;;;;;;;8.96;100.00;102334.56;5135716;27;20035;-76
2023/05/13 03:38:53;;;;;;;31.63;18.50;;;;;;;8.94;100.00;102330.28;5135513;27;20035;-78
2023/05/13 03:41:18;;;;;;;46.05;21.55;;;;;;;8.95;100.00;102321.41;5135706;27;20509;-77
2023/05/13 03:43:44;;;;;;;36.75;20.55;;;;;;;8.91;100.00;102326.06;5135115;27;20027;-76
2023/05/13 03:46:10;;;;;;;38.55;20.40;;;;;;;8.94;100.00;102332.94;5134785;27;20425;-77
2023/05/13 03:48:36;;;;;;;31.92;20.45;;;;;;;8.94;100.00;102335.59;5134832;27;20039;-77
2023/05/13 03:51:01;;;;;;;36.35;21.33;;;;;;;8.93;100.00;102336.56;5133230;27;20031;-77
2023/05/13 03:53:26;;;;;;;37.42;22.17;;;;;;;8.92;100.00;102330.38;5135222;27;20042;-77
2023/05/13 03:55:52;;;;;;;39.70;23.40;;;;;;;8.90;100.00;102337.59;5134843;27;20037;-77
2023/05/13 03:58:18;;;;;;;31.48;21.13;;;;;;;8.90;100.00;102337.59;5135194;27;20424;-77
2023/05/13 04:00:47;;;;;;;41.50;24.50;;;;;;;8.91;100.00;102334.00;5134841;27;20104;-77
2023/05/13 04:03:16;;;;;;;40.85;23.75;;;;;;;8.93;100.00;102340.06;5134694;27;20128;-77
2023/05/13 04:05:42;;;;;;;37.58;23.75;;;;;;;8.93;100.00;102336.56;5134694;27;20031;-77
2023/05/13 04:08:07;;;;;;;38.80;22.90;;;;;;;8.94;100.00;102328.53;5134337;27;20440;-77
2023/05/13 04:10:33;;;;;;;46.55;24.25;;;;;;;8.95;100.00;102339.97;5135159;27;20031;-77
2023/05/13 04:12:58;;;;;;;41.13;23.25;;;;;;;8.94;100.00;102336.47;5134630;27;20023;-77
2023/05/13 04:15:24;;;;;;;43.50;23.98;;;;;;;8.95;100.00;102334.66;5134595;27;20038;-77
2023/05/13 04:17:50;;;;;;;36.42;22.40;;;;;;;8.93;100.00;102336.56;5134634;27;20035;-77
2023/05/13 04:20:15;;;;;;;41.90;23.13;;;;;;;8.93;100.00;102333.91;5133727;27;20062;-77
2023/05/13 04:22:40;;;;;;;41.75;22.30;;;;;;;8.94;100.00;102339.13;5134685;27;20051;-77
2023/05/13 04:25:06;;;;;;;48.75;23.52;;;;;;;8.96;100.00;102339.88;5134694;27;20031;-77
2023/05/13 04:27:32;;;;;;;37.63;21.38;;;;;;;8.96;100.00;102341.69;5134269;27;20045;-77
2023/05/13 04:29:57;;;;;;;39.90;22.17;;;;;;;8.96;100.00;102341.69;5134318;27;20051;-77
2023/05/13 04:32:22;;;;;;;39.17;21.20;;;;;;;8.98;100.00;102339.78;5134267;27;20085;-77
2023/05/13 04:34:48;;;;;;;41.60;21.80;;;;;;;9.00;100.00;102352.03;5134710;27;20059;-77
2023/05/13 04:37:14;;;;;;;39.95;20.65;;;;;;;9.00;100.00;102352.03;5134152;27;20031;-77
2023/05/13 04:39:40;;;;;;;43.90;21.67;;;;;;;9.01;100.00;102344.91;5134189;27;20485;-77
2023/05/13 04:42:05;;;;;;;44.03;23.70;;;;;;;9.04;100.00;102346.53;5134266;27;20027;-77
2023/05/13 04:44:32;;;;;;;38.95;21.98;;;;;;;9.06;100.00;102344.63;5133452;27;20447;-78
2023/05/13 04:46:57;;;;;;;40.67;20.80;;;;;;;9.12;100.00;102352.22;5134337;27;20368;-77
2023/05/13 04:49:22;;;;;;;42.47;21.17;;;;;;;9.15;100.00;102347.59;5132907;27;20092;-78
2023/05/13 04:51:48;;;;;;;42.03;20.13;;;;;;;9.22;100.00;102360.50;5133877;28;20035;-77
2023/05/13 04:54:13;;;;;;;43.85;20.48;;;;;;;9.28;100.00;102354.81;5134124;28;20479;-77
2023/05/13 04:56:38;;;;;;;37.22;20.70;;;;;;;9.32;100.00;102361.66;5133689;27;20565;-79
2023/05/13 04:59:04;;;;;;;39.25;19.48;;;;;;;9.34;100.00;102362.41;5134010;28;20027;-77
2023/05/13 05:01:29;;;;;;;36.10;18.55;;;;;;;9.37;100.00;102361.38;5134307;28;20037;-77
2023/05/13 05:03:57;;;;;;;35.80;18.83;;;;;;;9.39;100.00;102363.00;5133975;28;20054;-78
2023/05/13 05:06:22;;;;;;;36.08;19.50;;;;;;;9.46;100.00;102364.31;5133627;27;20035;-77
2023/05/13 05:08:47;;;;;;;39.25;19.08;;;;;;;9.52;100.00;102365.72;5134018;27;20428;-77
2023/05/13 05:11:13;;;;;;;33.30;18.23;;;;;;;9.58;100.00;102359.19;5132585;28;20402;-77
2023/05/13 05:13:38;;;;;;;37.75;19.10;;;;;;;9.63;100.00;102365.06;5133748;27;20031;-77
2023/05/13 05:16:04;;;;;;;35.67;17.98;;;;;;;9.71;100.00;102368.09;5133911;27;20032;-77
2023/05/13 05:18:29;;;;;;;35.17;18.27;;;;;;;9.75;100.00;102366.97;5134000;27;20027;-77
2023/05/13 05:20:54;;;;;;;38.42;17.30;;;;;;;9.82;100.00;102368.31;5133802;27;20455;-78
2023/05/13 05:23:20;;;;;;;31.15;16.85;;;;;;;9.91;100.00;102366.00;5133835;28;20024;-77
2023/05/13 05:25:45;;;;;;;41.88;16.88;;;;;;;9.95;100.00;102362.19;5133904;28;20496;-78
2023/05/13 05:28:11;;;;;;;33.22;15.70;;;;;;;10.04;100.00;102366.91;5134096;27;20042;-78
2023/05/13 05:30:38;;;;;;;40.45;17.33;;;;;;;10.10;100.00;102371.84;5115405;28;20063;-77
2023/05/13 05:33:07;;;;;;;26.25;15.30;;;;;;;10.16;100.00;102374.09;5137698;27;20576;-76
2023/05/13 05:35:35;;;;;;;32.42;15.45;;;;;;;10.23;100.00;102372.75;5137770;27;20076;-80
2023/05/13 05:38:02;;;;;;;25.58;14.88;;;;;;;10.31;100.00;102374.06;5137375;27;20042;-78
2023/05/13 05:40:28;;;;;;;28.30;15.38;;;;;;;10.36;100.00;102374.66;5137805;27;20035;-78
2023/05/13 05:42:53;;;;;;;31.20;14.13;;;;;;;10.42;100.00;102379.59;5137620;27;20030;-78
2023/05/13 05:45:19;;;;;;;27.45;14.27;;;;;;;10.49;100.00;102382.69;5137556;27;20062;-78
2023/05/13 05:47:45;;;;;;;25.73;13.02;;;;;;;10.55;100.00;102377.84;5137354;27;20399;-76
2023/05/13 05:50:10;;;;;;;32.92;14.90;;;;;;;10.64;100.00;102379.00;5137514;27;20031;-76
2023/05/13 05:52:35;;;;;;;24.23;14.27;;;;;;;10.73;100.00;102374.88;5137060;27;20038;-76
2023/05/13 05:55:01;;;;;;;23.23;12.50;;;;;;;10.81;100.00;102375.25;5137408;27;20110;-76
2023/05/13 05:57:27;;;;;;;22.92;13.07;;;;;;;10.90;100.00;102376.44;5137053;27;20023;-76
2023/05/13 05:59:52;;;;;;;25.38;13.00;;;;;;;11.01;100.00;102378.34;5137183;27;20031;-75
2023/05/13 06:02:18;;;;;;;19.55;12.50;;;;;;;11.14;100.00;102379.22;5137202;27;20487;-76
2023/05/13 06:04:43;;;;;;;22.98;12.57;;;;;;;11.30;100.00;102381.69;5137684;27;20455;-76
2023/05/13 06:07:09;;;;;;;20.80;11.80;;;;;;;11.50;100.00;102382.13;5136992;27;20070;-75
2023/05/13 06:09:34;;;;;;;22.73;12.52;;;;;;;11.65;100.00;102381.88;5136938;27;20420;-77
2023/05/13 06:12:00;;;;;;;18.15;10.80;;;;;;;11.87;100.00;102383.03;5101686;27;20063;-76
2023/05/13 06:14:25;;;;;;;16.60;10.90;;;;;;;12.04;100.00;102383.66;5137395;27;20068;-75
2023/05/13 06:16:50;;;;;;;25.25;11.35;;;;;;;12.20;100.00;102370.06;5135266;27;20031;-74
2023/05/13 06:19:16;;;;;;;20.23;11.57;;;;;;;12.39;100.00;102374.88;5137449;27;20039;-77
2023/05/13 06:21:42;;;;;;;18.95;10.70;;;;;;;12.56;100.00;102378.97;5136704;27;20084;-75
2023/05/13 06:24:08;;;;;;;19.98;11.00;;;;;;;12.69;100.00;102377.94;5136588;27;20137;-76
2023/05/13 06:26:33;;;;;;;19.80;10.30;;;;;;;12.82;100.00;102367.19;5135508;27;20035;-76
2023/05/13 06:28:59;;;;;;;14.75;9.23;;;;;;;12.93;100.00;102370.84;5135190;27;20027;-76
2023/05/13 06:31:24;;;;;;;17.55;10.35;;;;;;;13.01;100.00;102368.44;5137011;27;20027;-77
2023/05/13 06:33:50;;;;;;;16.17;9.35;;;;;;;13.17;100.00;102366.28;5137175;27;20080;-79
2023/05/13 06:36:15;;;;;;;24.58;10.52;;;;;;;13.36;100.00;102373.78;5137305;27;20080;-76
2023/05/13 06:38:41;;;;;;;19.60;9.70;;;;;;;13.49;100.00;102367.44;5136468;27;20035;-78
2023/05/13 06:41:06;;;;;;;16.30;9.57;;;;;;;13.60;100.00;102369.25;5136327;27;20387;-75
2023/05/13 06:43:31;;;;;;;17.52;8.85;;;;;;;13.70;100.00;102373.78;5136295;27;20367;-76
2023/05/13 06:45:57;;;;;;;16.25;9.27;;;;;;;13.85;100.00;102374.38;5135647;27;20205;-74
2023/05/13 06:48:22;;;;;;;15.52;9.23;;;;;;;14.00;100.00;102380.31;5136273;27;20031;-75
2023/05/13 06:50:48;;;;;;;14.20;8.38;;;;;;;14.15;100.00;102370.16;5135075;27;20032;-74
2023/05/13 06:53:14;;;;;;;22.17;8.82;;;;;;;14.29;100.00;102372.56;5136055;27;20027;-73
2023/05/13 06:55:40;;;;;;;10.07;7.70;;;;;;;14.42;100.00;102377.78;5136035;27;20063;-73
2023/05/13 06:58:09;;;;;;;19.10;7.75;;;;;;;14.51;100.00;102376.16;5135893;27;20057;-73
2023/05/13 07:00:39;;;;;;;13.55;7.75;;;;;;;14.62;100.00;102384.19;5135941;27;20085;-73
2023/05/13 07:03:06;;;;;;;11.20;7.10;;;;;;;14.78;100.00;102377.56;5135799;27;20126;-73
2023/05/13 07:05:32;;;;;;;19.15;7.60;;;;;;;14.91;100.00;102380.03;5136183;27;20425;-73
2023/05/13 07:07:57;;;;;;;12.93;6.72;;;;;;;15.04;100.00;102382.53;5135966;27;20077;-74
2023/05/13 07:10:23;;;;;;;13.35;6.63;;;;;;;15.17;100.00;102383.16;5136079;27;20467;-74
2023/05/13 07:12:48;;;;;;;9.85;6.57;;;;;;;15.31;100.00;102376.63;5135562;27;20039;-73
2023/05/13 07:15:14;;;;;;;15.52;6.55;;;;;;;15.48;100.00;102376.00;5135958;27;20027;-74
2023/05/13 07:17:39;;;;;;;11.45;5.97;;;;;;;15.61;100.00;102381.13;5135555;27;20050;-74
2023/05/13 07:20:05;;;;;;;10.55;6.38;;;;;;;15.79;100.00;102381.38;5135439;27;20074;-75
2023/05/13 07:22:31;;;;;;;10.23;6.32;;;;;;;15.91;100.00;102381.28;5134178;27;20367;-74
2023/05/13 07:24:57;;;;;;;11.32;5.70;;;;;;;16.01;100.00;102380.31;5135431;27;20023;-75
2023/05/13 07:27:22;;;;;;;10.77;5.93;;;;;;;16.09;100.00;102374.25;5135419;27;20031;-74
2023/05/13 07:29:47;;;;;;;16.77;6.10;;;;;;;16.10;100.00;102373.25;5135406;27;20058;-74
2023/05/13 07:32:13;;;;;;;9.88;5.70;;;;;;;16.22;100.00;102369.47;5135380;27;20027;-74
2023/05/13 07:34:38;;;;;;;5.63;4.82;;;;;;;16.32;100.00;102366.81;5135559;27;20027;-75
2023/05/13 07:37:04;;;;;;;11.40;5.35;;;;;;;16.52;100.00;102370.34;5135059;27;20478;-75
2023/05/13 07:39:29;;;;;;;9.38;5.20;;;;;;;16.67;100.00;102372.59;5134426;27;20027;-73
2023/05/13 07:41:57;;;;;;;5.95;4.70;;;;;;;16.74;100.00;102371.91;5135422;27;20455;-75
2023/05/13 07:44:22;;;;;;;9.18;5.35;;;;;;;16.86;100.00;102382.50;5135015;27;20027;-74
2023/05/13 07:46:50;;;;;;;6.18;5.05;;;;;;;16.92;100.00;102376.59;5133363;27;20060;-80
2023/05/13 07:49:15;;;;;;;9.77;4.60;;;;;;;17.13;100.00;102376.41;5134973;27;20023;-74
2023/05/13 07:51:41;;;;;;;16.98;5.88;;;;;;;17.27;100.00;102378.63;5133618;27;20037;-74
2023/05/13 07:54:07;;;;;;;13.05;5.53;;;;;;;17.40;100.00;102372.91;5134173;27;20031;-76
2023/05/13 07:56:33;;;;;;;9.13;4.70;;;;;;;17.42;100.00;102364.69;5134860;27;20031;-77
2023/05/13 07:58:58;;;;;;;15.45;4.90;;;;;;;17.56;100.00;102364.22;5133841;27;20489;-77
2023/05/13 08:01:23;;;;;;;12.88;4.65;;;;;;;17.66;100.00;102364.19;5134882;27;20031;-76
2023/05/13 08:03:49;;;;;;;11.45;5.00;;;;;;;17.83;100.00;102362.53;5135023;27;20356;-78
2023/05/13 08:06:14;;;;;;;9.65;4.50;;;;;;;17.99;100.00;102359.22;5134667;27;20054;-78
2023/05/13 08:08:40;;;;;;;6.35;4.07;;;;;;;18.07;100.00;102364.69;5133413;27;20067;-78
2023/05/13 08:11:05;;;;;;;10.73;4.63;;;;;;;18.16;91.73;102362.94;5134857;27;20035;-77
2023/05/13 08:13:31;;;;;;;12.65;4.65;;;;;;;18.23;94.40;102360.50;5134645;27;20027;-78
2023/05/13 08:16:00;;;;;;;7.07;5.20;;;;;;;18.28;94.81;102366.25;5134205;27;20027;-78
2023/05/13 08:18:26;;;;;;;9.30;4.35;;;;;;;18.28;94.44;102367.09;5135246;27;20027;-77
2023/05/13 08:20:51;;;;;;;8.75;4.30;;;;;;;18.38;89.07;102364.34;5132830;27;20023;-75
2023/05/13 08:23:17;;;;;;;7.60;4.28;;;;;;;18.56;89.81;102366.19;5134384;27;20386;-77
2023/05/13 08:25:42;;;;;;;12.65;4.93;;;;;;;18.73;99.02;102367.19;5134322;27;20379;-77
2023/05/13 08:28:07;;;;;;;13.20;5.28;;;;;;;18.86;100.00;102370.34;5134602;27;20039;-77
2023/05/13 08:30:33;;;;;;;17.15;5.22;;;;;;;18.97;100.00;102370.09;5134081;27;20061;-78
2023/05/13 08:32:58;;;;;;;9.48;4.75;;;;;;;19.18;97.97;102360.78;5134238;27;20091;-78
2023/05/13 08:35:24;;;;;;;10.70;4.18;;;;;;;19.41;87.64;102366.50;5134272;27;20034;-78
2023/05/13 08:37:50;;;;;;;12.25;4.88;;;;;;;19.60;92.73;102367.25;5134148;27;20028;-77
2023/05/13 08:40:16;;;;;;;16.67;5.15;;;;;;;19.79;88.31;102366.19;5134388;27;20114;-78
2023/05/13 08:42:42;;;;;;;12.98;5.18;;;;;;;19.98;95.32;102371.31;5134173;27;20031;-78
2023/05/13 08:45:08;;;;;;;13.57;5.88;;;;;;;20.05;100.00;102375.06;5134368;27;20035;-78
2023/05/13 08:47:49;;;;;;;17.58;5.30;;;;;;;20.08;100.00;102374.72;5133727;27;20125;-78
2023/05/13 08:50:15;;;;;;;19.37;5.80;;;;;;;20.13;97.19;102379.63;5134466;27;20027;-78
2023/05/13 08:52:42;;;;;;;18.27;6.05;;;;;;;19.96;99.38;102367.94;5134140;27;20272;-78
2023/05/13 08:55:08;;;;;;;16.85;5.50;;;;;;;20.15;99.54;102374.06;5134557;27;20127;-79
2023/05/13 08:57:34;;;;;;;15.32;5.75;;;;;;;20.38;93.39;102382.38;5134020;27;20080;-79
2023/05/13 08:59:59;;;;;;;11.40;5.47;;;;;;;20.52;92.70;102379.00;5133926;28;20356;-78
2023/05/13 09:02:25;;;;;;;12.93;4.90;;;;;;;20.84;84.55;102381.91;5133771;27;20031;-79
2023/05/13 09:04:53;;;;;;;15.23;5.20;;;;;;;21.23;82.39;102376.63;5133210;27;20058;-80
2023/05/13 09:07:19;;;;;;;15.02;5.22;;;;;;;21.48;79.85;102385.53;5138052;27;20035;-78
2023/05/13 09:09:44;;;;;;;14.80;4.80;;;;;;;22.15;72.71;102386.09;5138342;27;20352;-78
2023/05/13 09:12:10;;;;;;;20.63;5.95;;;;;;;22.42;72.30;102384.75;5138195;27;20035;-78
2023/05/13 09:14:37;;;;;;;19.15;5.07;;;;;;;22.26;69.06;102388.41;5136802;27;20031;-79
2023/05/13 09:17:03;;;;;;;14.43;4.97;;;;;;;22.24;71.14;102382.31;5138076;27;20024;-80
2023/05/13 09:19:28;;;;;;;21.85;5.97;;;;;;;22.76;65.64;102383.47;5137997;27;20081;-79
2023/05/13 09:21:55;;;;;;;14.18;4.65;;;;;;;23.14;65.20;102388.06;5138008;27;20118;-78
2023/05/13 09:24:20;;;;;;;15.82;5.13;;;;;;;23.53;61.49;102381.56;5137741;27;20039;-77
2023/05/13 09:26:47;;;;;;;19.52;5.63;;;;;;;23.69;59.52;102384.06;5138333;27;20027;-78
2023/05/13 09:29:23;;;;;;;15.77;4.72;;;;;;;23.49;60.81;102381.06;5137673;27;20088;-77
2023/05/13 09:31:50;;;;;;;11.93;4.80;;;;;;;23.30;62.41;102381.63;5137897;27;20031;-77
2023/05/13 09:34:33;;;;;;;18.58;5.38;;;;;;;23.32;61.49;102380.44;5137521;27;20486;-77
2023/05/13 09:37:02;;;;;;;14.90;5.18;;;;;;;23.24;61.27;102372.34;5138065;27;20063;-78
2023/05/13 09:39:27;;;;;;;23.13;5.25;;;;;;;23.52;63.69;102377.16;5137543;27;20055;-78
2023/05/13 09:41:53;;;;;;;18.13;5.43;;;;;;;23.42;62.14;102371.97;5138309;27;20035;-77
2023/05/13 09:44:20;;;;;;;17.10;4.68;;;;;;;23.87;60.06;102371.97;5137611;27;20035;-77
2023/05/13 09:46:45;;;;;;;14.82;5.05;;;;;;;24.12;57.44;102377.91;5138320;27;20031;-78
2023/05/13 09:49:11;;;;;;;15.25;5.32;;;;;;;23.67;63.09;102377.97;5137444;27;20379;-78
2023/05/13 09:51:37;;;;;;;22.67;5.72;;;;;;;23.70;60.93;102371.31;5137362;27;20027;-78
2023/05/13 09:54:06;;;;;;;16.75;5.82;;;;;;;23.58;58.61;102373.66;5137660;27;20091;-78
2023/05/13 09:56:35;;;;;;;14.23;5.25;;;;;;;23.49;61.46;102366.66;5137232;27;20116;-77
2023/05/13 09:59:01;;;;;;;14.73;5.38;;;;;;;23.62;60.72;102364.13;5136903;27;20031;-77
2023/05/13 10:01:27;;;;;;;17.55;5.40;;;;;;;23.80;60.44;102373.75;5137143;27;20122;-78
2023/05/13 10:03:55;;;;;;;27.40;7.35;;;;;;;23.81;59.82;102369.97;5136961;27;20043;-78
2023/05/13 10:06:23;;;;;;;25.95;6.15;;;;;;;23.47;60.84;102360.56;5135910;27;20037;-78
2023/05/13 10:08:50;;;;;;;16.40;5.25;;;;;;;23.72;60.62;102363.81;5137107;27;20027;-81
2023/05/13 10:11:17;;;;;;;16.50;5.63;;;;;;;23.57;58.87;102361.97;5137187;27;20059;-79
2023/05/13 10:13:47;;;;;;;20.55;5.63;;;;;;;23.44;59.83;102366.38;5136915;27;20031;-77
2023/05/13 10:16:13;;;;;;;15.10;5.63;;;;;;;23.46;62.08;102358.88;5135527;27;20347;-78
2023/05/13 10:18:38;;;;;;;21.45;6.13;;;;;;;23.25;62.63;102365.91;5136281;27;20037;-79
2023/05/13 10:21:04;;;;;;;16.70;6.97;;;;;;;23.30;59.75;102357.19;5136685;27;20031;-79
2023/05/13 10:23:33;;;;;;;15.35;5.15;;;;;;;23.14;60.43;102356.34;5136553;27;20457;-79
2023/05/13 10:25:58;;;;;;;17.50;5.35;;;;;;;23.36;59.86;102357.31;5136615;27;20123;-80
2023/05/13 10:28:25;;;;;;;19.65;5.63;;;;;;;23.31;60.53;102359.72;5136646;27;20114;-79
2023/05/13 10:30:50;;;;;;;18.05;5.70;;;;;;;23.61;59.04;102353.44;5136576;27;20027;-79
2023/05/13 10:33:16;;;;;;;16.92;5.60;;;;;;;23.93;57.51;102363.91;5136711;27;20085;-81
2023/05/13 10:35:52;;;;;;;16.40;5.72;;;;;;;23.84;58.03;102356.88;5136808;27;20027;-77
2023/05/13 10:38:39;;;;;;;20.48;6.78;;;;;;;23.35;62.60;102360.22;5136667;27;20027;-80
2023/05/13 10:41:04;;;;;;;19.60;5.97;;;;;;;23.40;61.67;102363.19;5136873;27;20031;-78
2023/05/13 10:43:31;;;;;;;17.45;5.60;;;;;;;23.47;63.35;102355.97;5136373;27;20107;-78
2023/05/13 10:45:59;;;;;;;18.95;6.18;;;;;;;23.52;61.20;102349.97;5136434;27;20039;-78
2023/05/13 10:48:25;;;;;;;22.45;5.70;;;;;;;23.94;57.11;102359.31;5135172;27;20421;-78
2023/05/13 10:50:54;;;;;;;17.35;6.57;;;;;;;23.66;60.48;102359.13;5136661;27;20058;-79
2023/05/13 10:53:26;;;;;;;13.60;5.28;;;;;;;24.05;58.39;102350.66;5136303;27;20023;-79
2023/05/13 10:55:54;;;;;;;18.85;5.60;;;;;;;23.86;57.51;102345.84;5136101;27;20518;-78
2023/05/13 10:58:26;;;;;;;19.10;5.70;;;;;;;23.86;58.43;102351.28;5135865;27;20111;-75
2023/05/13 11:00:52;;;;;;;16.80;5.72;;;;;;;23.97;57.92;102347.22;5136271;27;20151;-78
2023/05/13 11:03:17;;;;;;;15.98;5.53;;;;;;;23.72;58.43;102344.78;5135531;27;20071;-78
2023/05/13 11:05:57;;;;;;;20.58;6.32;;;;;;;23.35;59.43;102343.91;5135864;27;20033;-77
2023/05/13 11:08:37;;;;;;;16.52;5.60;;;;;;;23.99;57.16;102347.84;5136103;27;20027;-77